createdAt,value
2022-12-23T00:00:02.973Z,1.8
2022-12-23T00:20:02.745Z,1.8
2022-12-23T00:40:06.702Z,1.7
2022-12-23T01:00:02.535Z,1.6
2022-12-23T01:20:02.424Z,1.5
2022-12-23T01:40:03.055Z,1.6
2022-12-23T02:00:02.670Z,1.5
2022-12-23T02:20:02.476Z,1.4
2022-12-23T02:40:03.398Z,1.4
2022-12-23T03:00:02.936Z,1.4
2022-12-23T03:20:02.631Z,1.5
2022-12-23T03:40:03.311Z,1.5
2022-12-23T04:00:02.916Z,1.5
2022-12-23T04:20:02.863Z,1.7
2022-12-23T04:40:02.427Z,1.7
2022-12-23T05:00:03.051Z,1.9
2022-12-23T05:20:02.729Z,1.8
2022-12-23T05:40:02.419Z,1.9
2022-12-23T06:00:03.130Z,2
2022-12-23T06:20:02.816Z,1.9
2022-12-23T06:40:02.350Z,2
2022-12-23T07:00:03.066Z,1.9
2022-12-23T07:20:03.133Z,1.9
2022-12-23T07:40:08.239Z,1.9
2022-12-23T08:00:02.544Z,2
2022-12-23T08:20:02.455Z,2.2
2022-12-23T08:40:02.948Z,2.3
2022-12-23T09:00:03.625Z,2.5
2022-12-23T09:20:03.243Z,2.7
2022-12-23T09:40:04.140Z,2.7
2022-12-23T10:00:02.816Z,2.8
2022-12-23T10:20:02.579Z,3
2022-12-23T10:40:03.174Z,3.2
2022-12-23T11:00:02.682Z,3.5
2022-12-23T11:20:02.543Z,3.8
2022-12-23T11:40:03.045Z,5
2022-12-23T12:00:02.578Z,4.1
2022-12-23T12:20:02.495Z,3.9
2022-12-23T12:40:03.000Z,3.8
2022-12-23T13:00:06.286Z,3.9
2022-12-23T13:20:02.917Z,3.9
2022-12-23T13:40:02.380Z,3.9
2022-12-23T14:00:08.578Z,3.7
2022-12-23T14:20:02.850Z,3.6
2022-12-23T14:40:02.545Z,3.2
2022-12-23T15:00:03.177Z,3.2
2022-12-23T15:20:03.111Z,3
2022-12-23T15:40:11.794Z,2.9
2022-12-23T16:00:03.274Z,2.8
2022-12-23T16:20:03.152Z,2.6
2022-12-23T16:40:02.597Z,2.3
2022-12-23T17:00:03.062Z,2.1
2022-12-23T17:20:02.903Z,2
2022-12-23T17:40:02.385Z,2
2022-12-23T18:00:03.070Z,1.8
2022-12-23T18:20:03.129Z,1.9
2022-12-23T18:40:02.584Z,1.8
2022-12-23T19:00:03.253Z,2
2022-12-23T19:20:02.329Z,1.8
2022-12-23T19:40:02.978Z,1.8
2022-12-23T20:00:03.033Z,1.9
2022-12-23T20:20:03.175Z,2
2022-12-23T20:40:03.115Z,1.9
2022-12-23T21:00:03.464Z,1.8
2022-12-23T21:20:07.427Z,1.8
2022-12-23T21:40:02.680Z,2
2022-12-23T22:00:03.295Z,2
2022-12-23T22:20:03.305Z,1.9
2022-12-23T22:40:02.735Z,1.8
2022-12-23T23:00:07.981Z,1.8
2022-12-23T23:20:02.309Z,1.9
2022-12-23T23:40:02.799Z,1.8
